Terminal Aerodrome Forecast
Issued by NWS

Current Version | Previous Version | Graphics & Text | Print | Product List | Glossary On
Versions: 1 2 3 4 5 6 7 8 9 10 11 12 13 14 15 16 17 18
000
FTUS41 KRNK 152340
TAFLWB
TAF
KLWB 152340Z 1600/1624 24007KT P6SM BKN080
     FM160200 28007KT 6SM -SHRA OVC060
      TEMPO 1603/1607 3SM -SHRA OVC025
     FM160700 30007KT P6SM VCSH OVC025
     FM160900 31007KT P6SM BKN025
     FM161600 33009KT P6SM SCT035=

USA.gov is the U.S. government's official web portal to all federal, state and local government web resources and services.